createdAt,value
2022-08-11T00:00:05.740Z,50.27
2022-08-11T00:01:05.717Z,50.60
2022-08-11T00:02:05.745Z,51.72
2022-08-11T00:03:06.827Z,50.27
2022-08-11T00:04:06.902Z,49.47
2022-08-11T00:05:05.706Z,49.47
2022-08-11T00:06:05.793Z,49.31
2022-08-11T00:07:05.771Z,48.66
2022-08-11T00:08:05.759Z,49.79
2022-08-11T00:09:05.818Z,49.15
2022-08-11T00:10:05.728Z,49.95
2022-08-11T00:11:05.713Z,53.50
2022-08-11T00:12:05.711Z,50.27
2022-08-11T00:13:05.793Z,50.27
2022-08-11T00:14:05.756Z,51.40
2022-08-11T00:15:05.739Z,51.08
2022-08-11T00:16:05.694Z,50.92
2022-08-11T00:17:05.701Z,50.60
2022-08-11T00:18:05.811Z,52.05
2022-08-11T00:19:05.982Z,52.37
2022-08-11T00:20:12.077Z,50.92
2022-08-11T00:21:06.739Z,50.92
2022-08-11T00:22:06.346Z,50.60
2022-08-11T00:23:06.679Z,51.08
2022-08-11T00:24:05.649Z,50.11
2022-08-11T00:25:05.775Z,50.43
2022-08-11T00:26:05.701Z,50.92
2022-08-11T00:27:05.673Z,51.08
2022-08-11T00:28:05.527Z,49.95
2022-08-11T00:29:06.709Z,50.11
2022-08-11T00:30:05.628Z,51.24
2022-08-11T00:31:05.527Z,50.43
2022-08-11T00:32:05.592Z,50.27
2022-08-11T00:33:05.509Z,50.11
2022-08-11T00:34:05.452Z,50.43
2022-08-11T00:35:54.047Z,50.11
2022-08-11T00:36:06.501Z,50.92
2022-08-11T00:37:05.571Z,50.11
2022-08-11T00:38:05.536Z,50.11
2022-08-11T00:39:05.545Z,49.47
2022-08-11T00:40:05.597Z,49.79
2022-08-11T00:41:05.498Z,49.79
2022-08-11T00:42:05.583Z,50.43
2022-08-11T00:43:05.507Z,50.27
2022-08-11T00:44:06.395Z,51.08
2022-08-11T00:45:05.507Z,51.40
2022-08-11T00:46:05.664Z,50.76
2022-08-11T00:47:05.432Z,51.56
2022-08-11T00:48:05.470Z,53.17
2022-08-11T00:49:05.446Z,52.21
2022-08-11T00:50:05.431Z,51.72
2022-08-11T00:51:05.472Z,50.92
2022-08-11T00:52:06.402Z,52.37
2022-08-11T00:53:06.445Z,51.88
2022-08-11T00:54:05.428Z,52.21
2022-08-11T00:55:05.418Z,51.88
2022-08-11T00:56:05.449Z,51.24
2022-08-11T00:57:36.306Z,50.76
2022-08-11T00:58:06.302Z,52.05
2022-08-11T00:59:05.326Z,52.53
2022-08-11T01:00:06.323Z,52.05
2022-08-11T01:01:05.351Z,51.40
2022-08-11T01:02:05.317Z,51.72
2022-08-11T01:03:05.286Z,52.69
2022-08-11T01:04:05.271Z,51.40
2022-08-11T01:05:05.261Z,51.40
2022-08-11T01:06:07.942Z,52.05
2022-08-11T01:07:05.357Z,52.85
2022-08-11T01:08:05.242Z,52.53
2022-08-11T01:09:05.279Z,52.37
2022-08-11T01:10:07.419Z,52.37
2022-08-11T01:11:06.381Z,53.66
2022-08-11T01:12:05.335Z,52.37
2022-08-11T01:13:05.175Z,50.92
2022-08-11T01:14:05.270Z,52.05
2022-08-11T01:15:05.251Z,51.40
2022-08-11T01:16:05.237Z,52.05
2022-08-11T01:17:05.247Z,51.40
2022-08-11T01:18:05.314Z,52.05
2022-08-11T01:19:05.235Z,52.21
2022-08-11T01:20:47.806Z,53.17
2022-08-11T01:21:06.141Z,53.01
2022-08-11T01:22:05.259Z,50.92
2022-08-11T01:23:07.370Z,52.69
2022-08-11T01:24:05.258Z,50.76
2022-08-11T01:25:05.190Z,51.40
2022-08-11T01:26:05.266Z,51.40
2022-08-11T01:27:05.175Z,52.05
2022-08-11T01:28:06.109Z,53.01
2022-08-11T01:29:05.150Z,53.50
2022-08-11T01:30:05.254Z,53.17
2022-08-11T01:31:05.132Z,52.53
2022-08-11T01:32:05.129Z,53.17
2022-08-11T01:33:05.150Z,53.98
2022-08-11T01:34:05.152Z,54.62
2022-08-11T01:35:05.104Z,52.69
2022-08-11T01:36:05.111Z,51.88
2022-08-11T01:37:05.099Z,52.53
2022-08-11T01:38:05.082Z,52.53
2022-08-11T01:39:05.096Z,52.21
2022-08-11T01:40:05.095Z,52.37
2022-08-11T01:41:05.059Z,54.14
2022-08-11T01:42:05.111Z,51.72
2022-08-11T01:43:05.044Z,51.88
2022-08-11T01:44:04.998Z,51.24
2022-08-11T01:45:06.118Z,50.27
2022-08-11T01:46:05.006Z,50.43
2022-08-11T01:47:05.085Z,51.72
2022-08-11T01:48:05.054Z,52.69
2022-08-11T01:50:06.743Z,51.56
2022-08-11T01:50:10.254Z,53.82
2022-08-11T01:51:04.922Z,51.88
2022-08-11T01:52:04.911Z,50.43
2022-08-11T01:53:04.939Z,51.24
2022-08-11T01:54:04.910Z,52.37
2022-08-11T01:55:04.944Z,52.37
2022-08-11T01:56:04.863Z,49.63
2022-08-11T01:57:04.882Z,51.56
2022-08-11T01:58:04.863Z,51.56
2022-08-11T01:59:04.934Z,52.05
2022-08-11T02:00:05.980Z,53.50
2022-08-11T02:01:04.949Z,52.37
2022-08-11T02:02:04.893Z,52.53
2022-08-11T02:03:04.913Z,50.43
2022-08-11T02:04:04.889Z,51.24
2022-08-11T02:05:04.966Z,52.85
2022-08-11T02:06:04.953Z,51.72
2022-08-11T02:07:04.872Z,52.21
2022-08-11T02:08:04.976Z,53.98
2022-08-11T02:09:04.865Z,55.27
2022-08-11T02:10:04.921Z,53.82
2022-08-11T02:11:04.974Z,53.17
2022-08-11T02:12:04.935Z,53.01
2022-08-11T02:13:04.840Z,52.85
2022-08-11T02:14:04.786Z,53.98
2022-08-11T02:15:05.801Z,53.50
2022-08-11T02:16:04.817Z,53.50
2022-08-11T02:17:04.806Z,53.01
2022-08-11T02:18:04.826Z,51.40
2022-08-11T02:19:04.789Z,52.05
2022-08-11T02:20:04.686Z,53.01
2022-08-11T02:21:04.746Z,52.69
2022-08-11T02:22:04.993Z,52.37
2022-08-11T02:23:04.647Z,51.72
2022-08-11T02:24:07.891Z,52.85
2022-08-11T02:25:04.734Z,53.01
2022-08-11T02:26:04.983Z,53.17
2022-08-11T02:27:04.640Z,53.82
2022-08-11T02:28:04.716Z,53.01
2022-08-11T02:29:04.762Z,53.17
2022-08-11T02:30:04.700Z,53.17
2022-08-11T02:31:04.751Z,54.30
2022-08-11T02:32:24.052Z,53.17
2022-08-11T02:33:05.621Z,53.50
2022-08-11T02:34:04.679Z,51.88
2022-08-11T02:35:04.762Z,51.40
2022-08-11T02:36:04.677Z,53.82
2022-08-11T02:37:04.699Z,52.85
2022-08-11T02:38:04.676Z,53.01
2022-08-11T02:39:04.654Z,52.37
2022-08-11T02:40:04.637Z,52.37
2022-08-11T02:41:04.603Z,53.01
2022-08-11T02:42:04.670Z,52.37
2022-08-11T02:43:04.606Z,53.01
2022-08-11T02:44:04.526Z,52.69
2022-08-11T02:45:05.542Z,53.33
2022-08-11T02:46:04.489Z,53.01
2022-08-11T02:47:04.511Z,53.17
2022-08-11T02:48:04.541Z,52.37
2022-08-11T02:49:04.581Z,55.43
2022-08-11T02:50:07.335Z,54.79
2022-08-11T02:51:04.463Z,53.66
2022-08-11T02:52:04.471Z,54.30
2022-08-11T02:53:04.548Z,53.17
2022-08-11T02:54:04.581Z,53.01
2022-08-11T02:55:04.526Z,52.21
2022-08-11T02:56:04.631Z,52.21
2022-08-11T02:57:04.488Z,51.72
2022-08-11T02:58:05.460Z,52.69
2022-08-11T02:59:04.528Z,53.17
2022-08-11T03:00:04.461Z,53.98
2022-08-11T03:01:04.467Z,52.21
2022-08-11T03:02:05.365Z,54.62
2022-08-11T03:03:04.454Z,53.98
2022-08-11T03:04:04.481Z,53.50
2022-08-11T03:05:04.437Z,52.53
2022-08-11T03:06:04.446Z,55.27
2022-08-11T03:07:04.852Z,53.17
2022-08-11T03:08:05.380Z,52.69
2022-08-11T03:09:04.427Z,53.33
2022-08-11T03:10:04.419Z,53.98
2022-08-11T03:11:05.406Z,53.66
2022-08-11T03:12:04.392Z,54.79
2022-08-11T03:13:04.454Z,54.95
2022-08-11T03:14:04.508Z,55.11
2022-08-11T03:15:04.438Z,53.82
2022-08-11T03:16:04.356Z,54.79
2022-08-11T03:17:04.463Z,53.50
2022-08-11T03:18:04.358Z,55.59
2022-08-11T03:19:04.344Z,55.43
2022-08-11T03:20:04.390Z,54.62
2022-08-11T03:21:04.297Z,53.82
2022-08-11T03:22:06.628Z,54.95
2022-08-11T03:23:04.292Z,55.11
2022-08-11T03:24:05.270Z,56.88
2022-08-11T03:25:06.464Z,57.85
2022-08-11T03:26:04.336Z,57.36
2022-08-11T03:27:04.306Z,53.98
2022-08-11T03:28:04.287Z,55.43
2022-08-11T03:29:04.271Z,56.24
2022-08-11T03:30:04.307Z,55.11
2022-08-11T03:31:04.254Z,57.52
2022-08-11T03:32:04.343Z,57.20
2022-08-11T03:33:04.239Z,58.49
2022-08-11T03:34:07.041Z,56.40
2022-08-11T03:35:05.185Z,53.98
2022-08-11T03:36:04.145Z,54.79
2022-08-11T03:37:16.425Z,56.72
2022-08-11T03:38:05.179Z,58.65
2022-08-11T03:39:04.201Z,55.75
2022-08-11T03:40:04.383Z,58.97
2022-08-11T03:41:04.270Z,57.36
2022-08-11T03:42:07.662Z,59.94
2022-08-11T03:43:05.110Z,58.33
2022-08-11T03:44:04.146Z,57.52
2022-08-11T03:45:04.141Z,57.85
2022-08-11T03:46:04.190Z,56.40
2022-08-11T03:47:04.137Z,57.52
2022-08-11T03:48:04.166Z,57.69
2022-08-11T03:49:04.105Z,57.69
2022-08-11T03:50:04.114Z,58.17
2022-08-11T03:51:04.162Z,56.88
2022-08-11T03:52:04.118Z,58.17
2022-08-11T03:53:04.117Z,59.14
2022-08-11T03:54:04.100Z,58.65
2022-08-11T03:55:04.121Z,58.33
2022-08-11T03:56:04.124Z,57.36
2022-08-11T03:57:04.176Z,59.78
2022-08-11T03:58:04.069Z,59.14
2022-08-11T03:59:04.164Z,57.36
2022-08-11T04:00:04.025Z,57.20
2022-08-11T04:01:04.173Z,57.69
2022-08-11T04:02:04.085Z,57.04
2022-08-11T04:03:04.040Z,57.20
2022-08-11T04:04:04.005Z,58.97
2022-08-11T04:05:04.022Z,60.26
2022-08-11T04:06:04.013Z,60.10
2022-08-11T04:07:04.044Z,58.49
2022-08-11T04:08:03.980Z,59.62
2022-08-11T04:09:03.999Z,58.49
2022-08-11T04:10:03.972Z,58.81
2022-08-11T04:11:03.981Z,58.17
2022-08-11T04:12:03.983Z,59.30
2022-08-11T04:13:03.966Z,59.78
2022-08-11T04:14:03.979Z,57.69
2022-08-11T04:15:03.947Z,57.20
2022-08-11T04:16:11.929Z,60.26
2022-08-11T04:17:04.977Z,60.10
2022-08-11T04:18:03.988Z,59.62
2022-08-11T04:19:03.909Z,59.78
2022-08-11T04:20:03.989Z,61.39
2022-08-11T04:21:03.915Z,60.75
2022-08-11T04:22:03.995Z,60.75
2022-08-11T04:23:03.910Z,60.26
2022-08-11T04:24:36.171Z,59.94
2022-08-11T04:25:04.786Z,58.65
2022-08-11T04:26:15.919Z,58.17
2022-08-11T04:27:04.907Z,60.42
2022-08-11T04:28:03.809Z,60.10
2022-08-11T04:29:03.747Z,60.59
2022-08-11T04:30:05.367Z,59.30
2022-08-11T04:31:03.733Z,60.59
2022-08-11T04:32:03.820Z,58.97
2022-08-11T04:33:03.873Z,58.49
2022-08-11T04:34:03.810Z,59.62
2022-08-11T04:35:03.802Z,58.01
2022-08-11T04:36:03.783Z,58.17
2022-08-11T04:37:03.796Z,58.65
2022-08-11T04:38:03.827Z,60.10
2022-08-11T04:39:03.823Z,58.97
2022-08-11T04:40:03.754Z,58.01
2022-08-11T04:41:03.849Z,58.49
2022-08-11T04:42:03.754Z,58.97
2022-08-11T04:43:03.857Z,58.33
2022-08-11T04:44:06.643Z,59.14
2022-08-11T04:45:03.812Z,59.46
2022-08-11T04:46:03.719Z,57.52
2022-08-11T04:47:03.711Z,58.97
2022-08-11T04:48:04.900Z,59.78
2022-08-11T04:49:03.726Z,59.78
2022-08-11T04:50:03.712Z,59.14
2022-08-11T04:51:09.138Z,58.65
2022-08-11T04:52:04.686Z,58.01
2022-08-11T04:53:03.710Z,57.69
2022-08-11T04:54:03.707Z,57.04
2022-08-11T04:55:03.683Z,58.33
2022-08-11T04:56:03.665Z,57.04
2022-08-11T04:57:03.611Z,57.85
2022-08-11T04:58:03.661Z,58.97
2022-08-11T04:59:03.665Z,57.85
2022-08-11T05:00:03.598Z,57.20
2022-08-11T05:01:03.628Z,58.17
2022-08-11T05:02:03.756Z,56.56
2022-08-11T05:03:03.602Z,56.88
2022-08-11T05:04:03.709Z,56.07
2022-08-11T05:05:03.607Z,57.04
2022-08-11T05:06:03.572Z,57.69
2022-08-11T05:07:03.481Z,58.01
2022-08-11T05:08:03.475Z,57.36
2022-08-11T05:09:03.459Z,58.17
2022-08-11T05:10:03.533Z,57.69
2022-08-11T05:11:03.489Z,58.65
2022-08-11T05:12:03.458Z,55.75
2022-08-11T05:13:03.459Z,57.04
2022-08-11T05:14:03.490Z,57.52
2022-08-11T05:15:03.503Z,59.14
2022-08-11T05:16:03.512Z,58.01
2022-08-11T05:17:03.530Z,57.04
2022-08-11T05:18:03.532Z,57.69
2022-08-11T05:19:03.477Z,57.52
2022-08-11T05:20:03.496Z,56.40
2022-08-11T05:21:05.282Z,55.43
2022-08-11T05:22:04.464Z,58.17
2022-08-11T05:23:03.480Z,57.20
2022-08-11T05:24:03.444Z,58.01
2022-08-11T05:25:03.503Z,58.17
2022-08-11T05:26:42.986Z,57.52
2022-08-11T05:27:04.526Z,57.85
2022-08-11T05:28:03.455Z,59.46
2022-08-11T05:29:19.543Z,58.65
2022-08-11T05:30:04.345Z,58.49
2022-08-11T05:31:03.538Z,58.97
2022-08-11T05:32:03.407Z,57.36
2022-08-11T05:33:03.416Z,58.33
2022-08-11T05:34:03.400Z,57.69
2022-08-11T05:35:03.399Z,56.56
2022-08-11T05:36:03.634Z,57.36
2022-08-11T05:37:25.045Z,55.43
2022-08-11T05:38:05.312Z,58.33
2022-08-11T05:39:03.356Z,55.43
2022-08-11T05:40:03.432Z,54.79
2022-08-11T05:41:03.353Z,55.43
2022-08-11T05:42:03.373Z,56.56
2022-08-11T05:43:03.300Z,54.79
2022-08-11T05:44:20.512Z,57.04
2022-08-11T05:45:04.266Z,55.11
2022-08-11T05:46:07.151Z,54.46
2022-08-11T05:47:03.365Z,54.46
2022-08-11T05:48:03.320Z,53.50
2022-08-11T05:49:03.452Z,54.95
2022-08-11T05:50:03.225Z,53.01
2022-08-11T05:51:03.167Z,53.33
2022-08-11T05:52:05.284Z,53.98
2022-08-11T05:53:04.190Z,54.46
2022-08-11T05:54:03.182Z,52.53
2022-08-11T05:55:06.968Z,54.46
2022-08-11T05:56:03.920Z,53.66
2022-08-11T05:57:04.179Z,55.11
2022-08-11T05:58:03.158Z,55.43
2022-08-11T05:59:03.206Z,53.98
2022-08-11T06:00:03.182Z,54.30
2022-08-11T06:01:03.245Z,53.33
2022-08-11T06:02:03.261Z,52.69
2022-08-11T06:03:03.269Z,52.05
2022-08-11T06:04:03.239Z,52.69
2022-08-11T06:05:03.196Z,54.14
2022-08-11T06:06:03.175Z,51.08
2022-08-11T06:07:03.180Z,52.85
2022-08-11T06:08:03.222Z,53.33
2022-08-11T06:09:03.175Z,53.98
2022-08-11T06:10:03.126Z,53.82
2022-08-11T06:11:03.248Z,53.17
2022-08-11T06:12:03.224Z,54.30
2022-08-11T06:13:03.275Z,53.50
2022-08-11T06:14:03.179Z,53.98
2022-08-11T06:15:03.235Z,54.62
2022-08-11T06:16:06.836Z,52.69
2022-08-11T06:17:04.160Z,53.82
2022-08-11T06:18:03.106Z,53.50
2022-08-11T06:19:03.111Z,53.50
2022-08-11T06:20:07.176Z,53.66
2022-08-11T06:21:03.086Z,53.98
2022-08-11T06:22:03.052Z,54.30
2022-08-11T06:23:03.067Z,54.62
2022-08-11T06:24:03.093Z,53.33
2022-08-11T06:25:03.065Z,53.17
2022-08-11T06:26:02.962Z,52.37
2022-08-11T06:27:12.458Z,53.33
2022-08-11T06:28:04.923Z,52.37
2022-08-11T06:29:02.970Z,54.79
2022-08-11T06:30:02.941Z,53.50
2022-08-11T06:31:02.936Z,52.21
2022-08-11T06:32:02.944Z,54.30
2022-08-11T06:33:02.904Z,53.17
2022-08-11T06:34:02.945Z,53.66
2022-08-11T06:35:02.947Z,52.05
2022-08-11T06:36:03.048Z,51.72
2022-08-11T06:37:02.956Z,50.43
2022-08-11T06:38:03.061Z,53.17
2022-08-11T06:39:02.951Z,50.43
2022-08-11T06:40:03.128Z,51.72
2022-08-11T06:41:02.944Z,52.53
2022-08-11T06:42:02.919Z,53.17
2022-08-11T06:43:02.925Z,49.95
2022-08-11T06:44:09.642Z,50.92
2022-08-11T06:45:03.911Z,53.82
2022-08-11T06:46:02.917Z,49.63
2022-08-11T06:47:02.919Z,50.60
2022-08-11T06:48:02.927Z,52.05
2022-08-11T06:49:02.902Z,49.79
2022-08-11T06:50:02.968Z,49.47
2022-08-11T06:51:02.852Z,53.17
2022-08-11T06:52:04.511Z,50.60
2022-08-11T06:53:02.889Z,51.40
2022-08-11T06:54:04.243Z,51.08
2022-08-11T06:55:03.057Z,52.85
2022-08-11T06:56:02.837Z,53.01
2022-08-11T06:57:31.317Z,50.60
2022-08-11T06:58:04.756Z,49.47
2022-08-11T06:59:02.746Z,49.63
2022-08-11T07:00:02.722Z,53.01
2022-08-11T07:01:02.813Z,49.47
2022-08-11T07:02:02.769Z,50.11
2022-08-11T07:03:02.740Z,49.15
2022-08-11T07:04:02.689Z,49.47
2022-08-11T07:05:02.640Z,49.47
2022-08-11T07:06:02.698Z,49.79
2022-08-11T07:07:02.617Z,50.76
2022-08-11T07:08:34.852Z,49.63
2022-08-11T07:09:03.730Z,52.37
2022-08-11T07:10:02.629Z,48.18
2022-08-11T07:11:02.720Z,51.40
2022-08-11T07:12:02.651Z,50.11
2022-08-11T07:13:02.709Z,48.02
2022-08-11T07:14:02.707Z,48.82
2022-08-11T07:15:02.707Z,50.60
2022-08-11T07:16:11.152Z,50.43
2022-08-11T07:17:03.617Z,47.53
2022-08-11T07:18:02.744Z,50.43
2022-08-11T07:19:02.696Z,49.95
2022-08-11T07:20:02.739Z,46.08
2022-08-11T07:21:02.712Z,51.40
2022-08-11T07:22:04.112Z,47.86
2022-08-11T07:23:03.671Z,47.70
2022-08-11T07:24:02.788Z,49.63
2022-08-11T07:25:03.432Z,46.08
2022-08-11T07:26:03.699Z,48.02
2022-08-11T07:27:02.658Z,48.82
2022-08-11T07:28:02.592Z,45.12
2022-08-11T07:29:02.601Z,48.50
2022-08-11T07:30:02.577Z,46.89
2022-08-11T07:31:02.561Z,50.92
2022-08-11T07:32:02.664Z,53.17
2022-08-11T07:33:02.553Z,51.24
2022-08-11T07:34:06.342Z,48.34
2022-08-11T07:35:03.549Z,49.95
2022-08-11T07:36:02.540Z,48.98
2022-08-11T07:37:03.584Z,48.66
2022-08-11T07:38:04.082Z,52.53
2022-08-11T07:39:02.589Z,49.63
2022-08-11T07:40:02.599Z,50.60
2022-08-11T07:41:02.581Z,52.37
2022-08-11T07:42:02.486Z,53.17
2022-08-11T07:43:02.658Z,51.08
2022-08-11T07:44:02.416Z,49.79
2022-08-11T07:45:02.368Z,50.43
2022-08-11T07:46:02.403Z,46.73
2022-08-11T07:47:02.358Z,49.63
2022-08-11T07:48:02.416Z,49.47
2022-08-11T07:49:02.485Z,50.43
2022-08-11T07:50:02.363Z,47.86
2022-08-11T07:51:02.432Z,50.60
2022-08-11T07:52:02.434Z,46.57
2022-08-11T07:53:02.477Z,47.05
2022-08-11T07:54:07.474Z,50.27
2022-08-11T07:55:03.356Z,48.66
2022-08-11T07:56:02.391Z,50.11
2022-08-11T07:57:09.419Z,48.82
2022-08-11T07:58:16.394Z,52.05
2022-08-11T07:59:08.213Z,50.76
2022-08-11T08:00:05.091Z,68.00
2022-08-11T08:01:02.628Z,51.08
2022-08-11T08:02:02.462Z,49.31
2022-08-11T08:03:02.321Z,50.76
2022-08-11T08:04:02.557Z,50.43
2022-08-11T08:05:02.353Z,47.86
2022-08-11T08:06:02.458Z,51.40
2022-08-11T08:07:02.349Z,63.33
2022-08-11T08:08:02.410Z,54.30
2022-08-11T08:09:02.398Z,49.63
2022-08-11T08:10:02.307Z,48.34
2022-08-11T08:11:02.303Z,48.66
2022-08-11T08:12:02.305Z,49.63
2022-08-11T08:13:02.339Z,48.66
2022-08-11T08:14:02.319Z,65.42
2022-08-11T08:15:02.348Z,50.60
2022-08-11T08:16:02.333Z,65.58
2022-08-11T08:17:02.151Z,49.79
2022-08-11T08:18:09.696Z,48.18
2022-08-11T08:19:03.203Z,49.31
2022-08-11T08:20:02.158Z,49.95
2022-08-11T08:21:02.165Z,49.63
2022-08-11T08:22:10.942Z,48.98
2022-08-11T08:23:03.112Z,49.31
2022-08-11T08:24:02.121Z,48.34
2022-08-11T08:25:02.310Z,49.95
2022-08-11T08:26:02.200Z,50.27
2022-08-11T08:27:02.328Z,50.11
2022-08-11T08:28:02.183Z,49.15
2022-08-11T08:29:02.235Z,48.50
2022-08-11T08:30:02.195Z,50.27
2022-08-11T08:31:02.246Z,47.05
2022-08-11T08:32:02.174Z,46.57
2022-08-11T08:33:02.117Z,62.84
2022-08-11T08:34:02.166Z,54.14
2022-08-11T08:35:04.589Z,48.34
2022-08-11T08:36:02.102Z,47.86
2022-08-11T08:37:02.139Z,46.08
2022-08-11T08:38:02.138Z,47.53
2022-08-11T08:39:02.122Z,56.07
2022-08-11T08:40:02.091Z,60.10
2022-08-11T08:41:02.145Z,61.23
2022-08-11T08:42:02.084Z,52.37
2022-08-11T08:43:02.110Z,50.92
2022-08-11T08:44:27.308Z,47.37
2022-08-11T08:45:03.973Z,45.12
2022-08-11T08:46:02.646Z,48.66
2022-08-11T08:47:02.030Z,45.44
2022-08-11T08:48:02.072Z,45.28
2022-08-11T08:49:02.022Z,45.92
2022-08-11T08:50:02.094Z,48.66
2022-08-11T08:51:02.090Z,44.96
2022-08-11T08:52:30.599Z,48.18
2022-08-11T08:53:03.916Z,46.08
2022-08-11T08:54:01.914Z,48.50
2022-08-11T08:55:02.007Z,45.92
2022-08-11T08:56:02.010Z,46.08
2022-08-11T08:57:01.954Z,43.99
2022-08-11T08:58:01.965Z,46.73
2022-08-11T08:59:01.938Z,49.15
2022-08-11T09:00:01.975Z,47.86
2022-08-11T09:01:02.033Z,46.89
2022-08-11T09:02:01.911Z,48.18
2022-08-11T09:03:17.207Z,49.79
2022-08-11T09:04:11.235Z,45.12
2022-08-11T09:05:02.956Z,48.98
2022-08-11T09:06:01.872Z,49.95
2022-08-11T09:07:01.798Z,59.62
2022-08-11T09:08:01.767Z,59.46
2022-08-11T09:09:01.792Z,59.46
2022-08-11T09:10:01.781Z,56.07
2022-08-11T09:11:01.739Z,43.18
2022-08-11T09:12:02.508Z,43.02
2022-08-11T09:13:01.742Z,47.21
2022-08-11T09:14:05.861Z,50.60
2022-08-11T09:15:01.776Z,48.82
2022-08-11T09:16:01.826Z,52.53
2022-08-11T09:17:01.862Z,50.43
2022-08-11T09:18:01.850Z,46.25
2022-08-11T09:19:01.811Z,49.47
2022-08-11T09:20:01.836Z,46.08
2022-08-11T09:21:01.764Z,47.21
2022-08-11T09:22:01.812Z,45.28
2022-08-11T09:24:02.057Z,48.50
2022-08-11T09:24:12.850Z,45.44
2022-08-11T09:25:03.698Z,44.96
2022-08-11T09:26:01.804Z,42.54
2022-08-11T09:27:01.798Z,49.47
2022-08-11T09:28:01.805Z,48.66
2022-08-11T09:29:01.745Z,48.66
2022-08-11T09:30:01.784Z,52.05
2022-08-11T09:31:01.717Z,48.02
2022-08-11T09:32:01.798Z,48.18
2022-08-11T09:33:01.742Z,46.08
2022-08-11T09:34:01.752Z,49.47
2022-08-11T09:35:01.685Z,53.98
2022-08-11T09:36:01.817Z,46.57
2022-08-11T09:37:01.711Z,43.18
2022-08-11T09:38:03.109Z,45.60
2022-08-11T09:39:01.660Z,50.43
2022-08-11T09:40:01.680Z,48.02
2022-08-11T09:41:01.642Z,45.44
2022-08-11T09:42:03.048Z,47.05
2022-08-11T09:43:02.665Z,44.15
2022-08-11T09:44:04.153Z,45.28
2022-08-11T09:45:02.618Z,49.95
2022-08-11T09:46:01.603Z,46.08
2022-08-11T09:47:01.646Z,47.05
2022-08-11T09:48:01.495Z,46.08
2022-08-11T09:49:01.624Z,47.21
2022-08-11T09:50:01.885Z,42.70
2022-08-11T09:51:01.578Z,43.67
2022-08-11T09:52:05.186Z,41.41
2022-08-11T09:53:36.256Z,46.73
2022-08-11T09:54:04.156Z,42.22
2022-08-11T09:55:01.450Z,40.77
2022-08-11T09:56:01.550Z,43.83
2022-08-11T09:57:05.195Z,44.31
2022-08-11T09:58:02.477Z,46.73
2022-08-11T09:59:01.517Z,43.02
2022-08-11T10:00:11.438Z,42.06
2022-08-11T10:01:02.496Z,42.70
2022-08-11T10:02:01.539Z,43.67
2022-08-11T10:03:01.499Z,43.67
2022-08-11T10:04:01.576Z,42.70
2022-08-11T10:05:01.473Z,40.12
2022-08-11T10:06:05.797Z,40.77
2022-08-11T10:07:04.387Z,41.09
2022-08-11T10:08:01.538Z,40.28
2022-08-11T10:09:01.501Z,40.61
2022-08-11T10:10:01.507Z,41.89
2022-08-11T10:11:01.429Z,41.73
2022-08-11T10:12:01.454Z,43.18
2022-08-11T10:13:01.459Z,43.99
2022-08-11T10:14:30.962Z,42.70
2022-08-11T10:15:02.428Z,45.76
2022-08-11T10:16:16.348Z,42.70
2022-08-11T10:17:02.337Z,40.93
2022-08-11T10:18:01.447Z,42.06
2022-08-11T10:19:01.429Z,41.41
2022-08-11T10:20:04.821Z,42.22
2022-08-11T10:21:01.379Z,44.47
2022-08-11T10:22:01.474Z,41.89
2022-08-11T10:23:01.385Z,49.31
2022-08-11T10:24:05.909Z,47.86
2022-08-11T10:25:02.374Z,42.06
2022-08-11T10:26:01.339Z,45.44
2022-08-11T10:27:01.297Z,42.70
2022-08-11T10:28:28.379Z,43.67
2022-08-11T10:29:13.066Z,40.44
2022-08-11T10:30:03.305Z,44.96
2022-08-11T10:31:01.231Z,42.22
2022-08-11T10:32:02.921Z,40.77
2022-08-11T10:33:02.193Z,45.28
2022-08-11T10:34:01.464Z,43.34
2022-08-11T10:35:01.263Z,45.28
2022-08-11T10:36:01.275Z,42.70
2022-08-11T10:37:01.268Z,39.64
2022-08-11T10:38:07.574Z,40.93
2022-08-11T10:39:02.304Z,43.34
2022-08-11T10:40:01.185Z,46.08
2022-08-11T10:41:01.293Z,42.06
2022-08-11T10:42:07.539Z,41.73
2022-08-11T10:43:02.393Z,44.96
2022-08-11T10:44:03.564Z,44.96
2022-08-11T10:45:01.084Z,41.41
2022-08-11T10:46:01.144Z,40.93
2022-08-11T10:47:01.101Z,45.60
2022-08-11T10:48:01.099Z,39.64
2022-08-11T10:49:01.055Z,39.64
2022-08-11T10:50:01.085Z,40.93
2022-08-11T10:51:02.368Z,41.41
2022-08-11T10:52:01.128Z,41.89
2022-08-11T10:53:01.149Z,39.16
2022-08-11T10:54:01.178Z,38.51
2022-08-11T10:55:01.153Z,37.71
2022-08-11T10:56:01.213Z,37.22
2022-08-11T10:57:01.190Z,38.51
2022-08-11T10:58:05.012Z,38.67
2022-08-11T10:59:04.016Z,37.38
2022-08-11T11:00:02.054Z,38.35
2022-08-11T11:01:02.251Z,38.35
2022-08-11T11:02:01.069Z,38.35
2022-08-11T11:03:22.355Z,37.87
2022-08-11T11:04:01.988Z,40.93
2022-08-11T11:05:01.092Z,39.16
2022-08-11T11:06:12.555Z,43.67
2022-08-11T11:07:02.080Z,45.60
2022-08-11T11:08:01.135Z,40.44
2022-08-11T11:09:04.095Z,36.25
2022-08-11T11:10:02.020Z,40.28
2022-08-11T11:11:00.988Z,39.48
2022-08-11T11:12:00.985Z,39.48
2022-08-11T11:13:01.019Z,42.70
2022-08-11T11:14:00.989Z,38.83
2022-08-11T11:15:00.957Z,40.12
2022-08-11T11:16:00.941Z,39.96
2022-08-11T11:17:00.938Z,39.32
2022-08-11T11:18:01.946Z,39.16
2022-08-11T11:19:01.444Z,37.38
2022-08-11T11:20:00.988Z,37.38
2022-08-11T11:21:00.918Z,37.06
2022-08-11T11:22:00.936Z,37.87
2022-08-11T11:23:00.894Z,39.64
2022-08-11T11:24:00.873Z,41.09
2022-08-11T11:25:00.963Z,38.51
2022-08-11T11:26:00.831Z,38.35
2022-08-11T11:27:00.880Z,41.57
2022-08-11T11:28:00.993Z,40.77
2022-08-11T11:29:01.894Z,40.44
2022-08-11T11:30:00.896Z,40.12
2022-08-11T11:31:00.945Z,41.09
2022-08-11T11:32:00.806Z,43.83
2022-08-11T11:33:00.805Z,44.63
2022-08-11T11:34:12.286Z,43.34
2022-08-11T11:35:01.770Z,41.09
2022-08-11T11:36:00.749Z,40.93
2022-08-11T11:37:00.743Z,39.96
2022-08-11T11:38:04.784Z,41.09
2022-08-11T11:39:01.802Z,41.41
2022-08-11T11:40:00.780Z,39.96
2022-08-11T11:41:00.712Z,39.64
2022-08-11T11:42:00.682Z,40.93
2022-08-11T11:43:00.689Z,40.28
2022-08-11T11:44:01.371Z,41.09
2022-08-11T11:45:01.602Z,38.99
2022-08-11T11:46:01.674Z,40.77
2022-08-11T11:47:00.645Z,41.57
2022-08-11T11:48:00.674Z,41.41
2022-08-11T11:49:00.679Z,40.93
2022-08-11T11:50:00.723Z,40.61
2022-08-11T11:51:00.662Z,42.22
2022-08-11T11:52:00.679Z,42.22
2022-08-11T11:53:00.659Z,41.73
2022-08-11T11:54:00.653Z,41.09
2022-08-11T11:55:00.762Z,40.93
2022-08-11T11:56:00.652Z,42.22
2022-08-11T11:57:00.653Z,41.41
2022-08-11T11:58:02.739Z,41.09
2022-08-11T11:59:00.624Z,41.89
2022-08-11T12:00:00.734Z,41.09
2022-08-11T12:01:00.588Z,40.61
2022-08-11T12:02:01.640Z,43.67
2022-08-11T12:03:02.626Z,42.70
2022-08-11T12:04:00.594Z,42.70
2022-08-11T12:05:00.586Z,42.06
2022-08-11T12:06:00.608Z,42.22
2022-08-11T12:07:00.534Z,40.61
2022-08-11T12:08:12.500Z,40.77
2022-08-11T12:09:01.481Z,40.61
2022-08-11T12:10:00.556Z,40.44
2022-08-11T12:11:00.591Z,41.41
2022-08-11T12:12:00.520Z,41.57
2022-08-11T12:13:00.459Z,41.25
2022-08-11T12:14:00.525Z,43.51
2022-08-11T12:15:00.481Z,44.79
2022-08-11T12:16:31.567Z,41.73
2022-08-11T12:17:01.408Z,42.06
2022-08-11T12:18:00.463Z,41.09
2022-08-11T12:19:00.453Z,40.93
2022-08-11T12:20:01.723Z,40.12
2022-08-11T12:21:00.491Z,42.22
2022-08-11T12:22:00.885Z,43.99
2022-08-11T12:23:00.486Z,43.67
2022-08-11T12:24:04.330Z,45.76
2022-08-11T12:25:01.449Z,40.93
2022-08-11T12:26:25.204Z,41.25
2022-08-11T12:27:15.615Z,46.73
2022-08-11T12:28:01.347Z,40.12
2022-08-11T12:29:00.395Z,42.22
2022-08-11T12:30:00.391Z,42.06
2022-08-11T12:31:00.403Z,41.57
2022-08-11T12:32:00.422Z,40.12
2022-08-11T12:33:00.371Z,39.48
2022-08-11T12:34:00.384Z,39.32
2022-08-11T12:35:00.369Z,42.06
2022-08-11T12:36:00.995Z,40.28
2022-08-11T12:37:00.325Z,41.89
2022-08-11T12:38:03.757Z,40.61
2022-08-11T12:39:02.357Z,41.89
2022-08-11T12:40:37.957Z,42.70
2022-08-11T12:41:16.983Z,41.89
2022-08-11T12:42:02.400Z,42.54
2022-08-11T12:43:00.317Z,40.61
2022-08-11T12:44:00.218Z,40.93
2022-08-11T12:45:00.294Z,40.12
2022-08-11T12:46:00.357Z,42.22
2022-08-11T12:47:00.333Z,43.99
2022-08-11T12:48:42.576Z,41.41
2022-08-11T12:49:02.468Z,41.41
2022-08-11T12:50:01.219Z,40.28
2022-08-11T12:51:00.153Z,38.99
2022-08-11T12:52:13.964Z,39.80